To NAV CANADA Home Page Login to a new session Search on AWWS site Disclaimer Vers la page française équivalente Tips FAQ What's new on the site To the Forecasts and Observations / NOTAM section To "File a Flight Plan" website Publications and other links Update of the User's profile FIC Telephone Numbers My Weather Data Folder Route Weather Data Regional Weather Data Local Weather Data To the Forecasts and Observations / NOTAM section
Request Generated 11/22/2017 at 13:03:08 UTC . Weather information available at that time is displayed.

METAR/TAF

If you find any discrepancies between the coded METAR/TAF and the plain language METAR/TAF please use the coded METAR/TAF. LWIS bulletins are not decoded in plain language.

CALGARY/SPRINGBANK/AB    (show WxCam)

METAR CYBW 221300Z AUTO 26019G24KT 9SM CLR 09/00 A2974 RMK SLP116 DENSITY ALT 4300FT=
METAR
LOCATION
CYBW - CALGARY/SPRINGBANK/AB
DATE - TIME
22 NOVEMBER 2017 - 1300 UTC
WIND
260 TRUE @ 19  KNOTS
GUSTS
24 KNOTS
VISIBILITY
9 STAT.  MILES
RUNWAY VISUAL RANGE
WEATHER
CLOUDINESS
CLEAR SKY
TEMP / DEWPOINT
9 C / 0 C
ALTIMETER
29.74 IN HG
RECENT WEATHER
WIND SHEAR

SPECI CYBW 221242Z AUTO 27015G21KT 9SM CLR 09/00 A2976 RMK SLP123 DENSITY ALT 4200FT=
SPECI
LOCATION
CYBW - CALGARY/SPRINGBANK/AB
DATE - TIME
22 NOVEMBER 2017 - 1242 UTC
WIND
270 TRUE @ 15  KNOTS
GUSTS
21 KNOTS
VISIBILITY
9 STAT.  MILES
RUNWAY VISUAL RANGE
WEATHER
CLOUDINESS
CLEAR SKY
TEMP / DEWPOINT
9 C / 0 C
ALTIMETER
29.76 IN HG
RECENT WEATHER
WIND SHEAR

METAR CYBW 221200Z AUTO 32005KT 260V340 9SM CLR 05/M00 A2975 RMK SLP125=
METAR
LOCATION
CYBW - CALGARY/SPRINGBANK/AB
DATE - TIME
22 NOVEMBER 2017 - 1200 UTC
WIND
320 TRUE @ 5  KNOTS
VARIATION
260 <-> 340  DEG
VISIBILITY
9 STAT.  MILES
RUNWAY VISUAL RANGE
WEATHER
CLOUDINESS
CLEAR SKY
TEMP / DEWPOINT
5 C / 0 C
ALTIMETER
29.75 IN HG
RECENT WEATHER
WIND SHEAR

METAR CYBW 221100Z AUTO 29010G16KT 9SM CLR 09/00 A2972 RMK SLP108 DENSITY ALT 4300FT=
METAR
LOCATION
CYBW - CALGARY/SPRINGBANK/AB
DATE - TIME
22 NOVEMBER 2017 - 1100 UTC
WIND
290 TRUE @ 10  KNOTS
GUSTS
16 KNOTS
VISIBILITY
9 STAT.  MILES
RUNWAY VISUAL RANGE
WEATHER
CLOUDINESS
CLEAR SKY
TEMP / DEWPOINT
9 C / 0 C
ALTIMETER
29.72 IN HG
RECENT WEATHER
WIND SHEAR

TAF CYBW 221249Z 2213/2301 26015G25KT P6SM SCT240 BECMG 2217/2219 24010KT BKN240 RMK FCST BASED ON AUTO OBS. NXT FCST BY 221800Z=
TAF
LOCATION

CYBW - CALGARY/SPRINGBANK/AB
VALIDITY [UTC]
22 NOV - 1249 to
23 NOV - 0100
 
TIMES
[UTC]
WIND
[DEGREES TRUE]
VISIBILITY
[STAT. MILES]
WEATHER
CLOUDINESS
[FEET AGL]
 
22 NOV - 1300 to
23 NOV - 0100
260 @ 15 KNOTS
GUSTS 25 KNOTS
6+
NIL
24000 SCATTERED
BECOMING
22 NOV - 1700 to
22 NOV - 1900
240 @ 10 KNOTS
 
 
24000 BROKEN
REMARKS
THE FORECAST IS BASED ON AUTOMATIC OBSERVATIONS - THE NEXT FORECAST WILL BE ISSUED BY 1800 UTC ON DAY 22


Your time UTC time
Weather data provided by Environment Canada and NAV CANADA